Time;durP1;ratioP1;P1;durP2;ratioP2;P2;SDS_P1;SDS_P2;PMS_P1;PMS_P2;Temp;Humidity;BMP_temperature;BMP_pressure;BME280_temperature;BME280_humidity;BME280_pressure;Samples;Min_cycle;Max_cycle;Signal;HPM_P1;HPM_P2
2022/10/21 00:00:26;;;;;;;9.95;5.63;;;;;;;;;;4993345;28;20349;-69
2022/10/21 00:02:51;;;;;;;14.85;6.97;;;;;;;;;;4993437;28;20388;-70
2022/10/21 00:05:17;;;;;;;13.68;7.53;;;;;;;;;;4993086;28;20034;-72
2022/10/21 00:07:42;;;;;;;12.63;6.28;;;;;;;;;;4993394;28;20023;-67
2022/10/21 00:10:08;;;;;;;13.43;6.00;;;;;;;;;;4993295;28;20030;-70
2022/10/21 00:12:34;;;;;;;11.93;6.25;;;;;;;;;;4996215;28;20384;-67
2022/10/21 00:15:01;;;;;;;15.88;6.25;;;;;;;;;;4997455;28;20018;-67
2022/10/21 00:17:26;;;;;;;16.13;7.35;;;;;;;;;;4997374;28;20026;-67
2022/10/21 00:19:52;;;;;;;14.48;6.18;;;;;;;;;;4996882;28;20041;-66
2022/10/21 00:22:17;;;;;;;10.57;6.40;;;;;;;;;;4997149;28;20038;-71
2022/10/21 00:24:43;;;;;;;13.70;5.78;;;;;;;;;;4997275;28;20472;-68
2022/10/21 00:27:08;;;;;;;11.75;7.07;;;;;;;;;;4997337;28;20026;-67
2022/10/21 00:29:33;;;;;;;13.10;6.93;;;;;;;;;;4997103;28;20042;-68
2022/10/21 00:31:59;;;;;;;13.18;7.22;;;;;;;;;;4997026;28;20022;-67
2022/10/21 00:34:24;;;;;;;13.48;7.18;;;;;;;;;;4996825;28;20472;-67
2022/10/21 00:36:50;;;;;;;13.77;6.82;;;;;;;;;;4996970;28;20138;-67
2022/10/21 00:39:15;;;;;;;12.90;6.90;;;;;;;;;;4996929;28;20018;-66
2022/10/21 00:41:41;;;;;;;15.07;6.82;;;;;;;;;;4996886;28;20432;-67
2022/10/21 00:44:11;;;;;;;5.28;3.33;;;;;;;;;;4997017;28;20029;-67
2022/10/21 00:46:48;;;;;;;12.98;7.38;;;;;;;;;;4995479;28;20031;-66
2022/10/21 00:49:20;;;;;;;14.00;6.97;;;;;;;;;;4996603;28;20026;-69
2022/10/21 00:51:48;;;;;;;13.90;7.22;;;;;;;;;;4996773;28;20369;-67
2022/10/21 00:54:15;;;;;;;15.13;6.88;;;;;;;;;;4996635;28;20376;-66
2022/10/21 00:56:44;;;;;;;14.88;7.43;;;;;;;;;;4996726;28;20102;-71
2022/10/21 00:59:09;;;;;;;13.90;7.30;;;;;;;;;;4996587;28;20018;-67
2022/10/21 01:01:35;;;;;;;6.72;4.35;;;;;;;;;;4996383;28;20534;-67
2022/10/21 01:04:02;;;;;;;10.00;4.85;;;;;;;;;;4996348;28;20026;-72
2022/10/21 01:06:29;;;;;;;20.30;8.82;;;;;;;;;;4996501;28;20049;-70
2022/10/21 01:08:55;;;;;;;13.48;7.47;;;;;;;;;;4996433;28;20018;-67
2022/10/21 01:11:22;;;;;;;17.13;7.97;;;;;;;;;;4996293;28;20081;-69
2022/10/21 01:14:06;;;;;;;13.43;7.22;;;;;;;;;;4996126;28;20042;-67
2022/10/21 01:16:35;;;;;;;16.23;8.25;;;;;;;;;;4996232;28;20060;-66
2022/10/21 01:19:37;;;;;;;16.00;8.15;;;;;;;;;;4996391;28;20076;-67
2022/10/21 01:22:36;;;;;;;15.40;7.75;;;;;;;;;;4996065;28;20038;-66
2022/10/21 01:25:17;;;;;;;16.75;7.43;;;;;;;;;;4995871;28;20022;-66
2022/10/21 01:28:01;;;;;;;10.32;5.95;;;;;;;;;;4996310;28;20372;-67
2022/10/21 01:30:29;;;;;;;12.38;7.28;;;;;;;;;;4996048;28;20034;-67
2022/10/21 01:33:26;;;;;;;15.40;8.57;;;;;;;;;;4995800;28;20034;-70
2022/10/21 01:35:58;;;;;;;11.38;5.90;;;;;;;;;;4996012;28;20030;-68
2022/10/21 01:38:35;;;;;;;15.30;8.00;;;;;;;;;;4996054;28;20029;-69
2022/10/21 01:41:33;;;;;;;13.13;7.88;;;;;;;;;;4995639;28;20357;-70
2022/10/21 01:44:23;;;;;;;15.32;8.55;;;;;;;;;;4974222;28;20058;-67
2022/10/21 01:47:05;;;;;;;12.32;6.72;;;;;;;;;;4973961;28;20047;-66
2022/10/21 01:49:36;;;;;;;17.10;9.10;;;;;;;;;;4974201;28;20043;-67
2022/10/21 01:52:03;;;;;;;13.77;8.35;;;;;;;;;;4974159;28;20038;-66
2022/10/21 01:54:43;;;;;;;14.88;8.90;;;;;;;;;;4974130;28;20039;-68
2022/10/21 01:57:11;;;;;;;17.20;8.70;;;;;;;;;;4974126;28;20034;-67
2022/10/21 01:59:38;;;;;;;20.90;10.00;;;;;;;;;;4973989;28;20041;-68
2022/10/21 02:02:06;;;;;;;18.88;9.52;;;;;;;;;;4973600;28;20110;-66
2022/10/21 02:04:34;;;;;;;16.90;10.02;;;;;;;;;;4973974;28;20126;-66
2022/10/21 02:07:01;;;;;;;16.38;9.27;;;;;;;;;;4973862;28;20035;-66
2022/10/21 02:09:26;;;;;;;15.82;8.13;;;;;;;;;;4973723;28;20027;-69
2022/10/21 02:11:57;;;;;;;20.33;10.45;;;;;;;;;;4973671;28;20178;-66
2022/10/21 02:14:29;;;;;;;12.00;6.45;;;;;;;;;;4973748;28;20105;-66
2022/10/21 02:16:55;;;;;;;10.88;7.03;;;;;;;;;;4973550;28;20050;-66
2022/10/21 02:19:20;;;;;;;14.45;6.85;;;;;;;;;;4982425;28;20046;-66
2022/10/21 02:21:48;;;;;;;16.58;8.13;;;;;;;;;;4994913;28;20074;-66
2022/10/21 02:24:14;;;;;;;10.25;6.72;;;;;;;;;;4995148;28;20037;-66
2022/10/21 02:26:39;;;;;;;18.52;8.35;;;;;;;;;;4995043;28;20022;-66
2022/10/21 02:29:05;;;;;;;14.30;7.22;;;;;;;;;;4994901;28;20061;-71
2022/10/21 02:31:57;;;;;;;20.63;9.73;;;;;;;;;;4994873;28;20480;-66
2022/10/21 02:34:31;;;;;;;16.58;9.05;;;;;;;;;;4973203;28;20121;-66
2022/10/21 02:37:08;;;;;;;19.75;10.20;;;;;;;;;;4973313;28;20118;-70
2022/10/21 02:39:38;;;;;;;17.00;8.50;;;;;;;;;;4973264;28;20035;-70
2022/10/21 02:42:09;;;;;;;15.95;9.75;;;;;;;;;;4973271;28;20039;-70
2022/10/21 02:44:34;;;;;;;14.75;8.52;;;;;;;;;;4972990;28;20035;-69
2022/10/21 02:47:02;;;;;;;16.70;10.00;;;;;;;;;;4973240;28;20042;-66
2022/10/21 02:49:27;;;;;;;19.63;10.50;;;;;;;;;;4972955;28;20030;-67
2022/10/21 02:51:53;;;;;;;13.35;7.53;;;;;;;;;;4973042;28;20053;-67
2022/10/21 02:54:18;;;;;;;18.23;10.15;;;;;;;;;;4973195;28;20113;-68
2022/10/21 02:56:44;;;;;;;13.98;8.20;;;;;;;;;;4972969;28;20031;-67
2022/10/21 02:59:09;;;;;;;18.98;8.88;;;;;;;;;;4972686;28;20074;-69
2022/10/21 03:01:35;;;;;;;14.23;9.02;;;;;;;;;;4972942;28;20027;-72
2022/10/21 03:04:00;;;;;;;20.65;11.50;;;;;;;;;;4972697;28;20031;-70
2022/10/21 03:06:26;;;;;;;19.63;10.00;;;;;;;;;;4972962;28;20086;-71
2022/10/21 03:08:51;;;;;;;12.63;8.52;;;;;;;;;;4972995;28;20090;-67
2022/10/21 03:11:17;;;;;;;14.77;8.57;;;;;;;;;;4984599;28;20126;-67
2022/10/21 03:13:42;;;;;;;16.15;8.32;;;;;;;;;;4993809;28;20120;-66
2022/10/21 03:16:08;;;;;;;14.07;8.10;;;;;;;;;;4994208;28;20041;-66
2022/10/21 03:18:33;;;;;;;18.30;9.65;;;;;;;;;;4994069;28;20023;-66
2022/10/21 03:20:59;;;;;;;15.65;9.20;;;;;;;;;;4993713;28;20027;-66
2022/10/21 03:23:24;;;;;;;19.45;10.73;;;;;;;;;;4993888;28;20072;-67
2022/10/21 03:25:50;;;;;;;23.85;9.85;;;;;;;;;;4994061;28;20054;-67
2022/10/21 03:28:15;;;;;;;16.52;9.63;;;;;;;;;;4993604;28;20045;-66
2022/10/21 03:30:41;;;;;;;13.27;7.80;;;;;;;;;;4993965;28;20037;-66
2022/10/21 03:33:06;;;;;;;14.48;8.02;;;;;;;;;;4994096;28;20026;-66
2022/10/21 03:35:31;;;;;;;12.80;7.68;;;;;;;;;;4994043;28;20030;-71
2022/10/21 03:37:57;;;;;;;20.38;10.15;;;;;;;;;;4993714;28;20404;-66
2022/10/21 03:40:23;;;;;;;22.13;11.73;;;;;;;;;;4993529;28;20022;-67
2022/10/21 03:42:49;;;;;;;17.83;8.93;;;;;;;;;;4993421;28;20077;-66
2022/10/21 03:45:15;;;;;;;19.38;11.07;;;;;;;;;;4993553;28;20030;-66
2022/10/21 03:47:40;;;;;;;14.27;7.45;;;;;;;;;;4993160;28;20155;-66
2022/10/21 03:50:06;;;;;;;20.30;11.85;;;;;;;;;;4993523;28;20026;-66
2022/10/21 03:52:32;;;;;;;21.02;10.75;;;;;;;;;;4993591;28;20105;-66
2022/10/21 03:54:57;;;;;;;21.25;11.40;;;;;;;;;;4993623;28;20058;-67
2022/10/21 03:57:23;;;;;;;20.58;10.65;;;;;;;;;;4993397;28;20057;-67
2022/10/21 03:59:48;;;;;;;14.05;8.63;;;;;;;;;;4993563;28;20089;-67
2022/10/21 04:02:14;;;;;;;19.98;10.52;;;;;;;;;;4993443;28;20034;-68
2022/10/21 04:04:40;;;;;;;18.75;10.48;;;;;;;;;;4993632;28;20022;-66
2022/10/21 04:07:05;;;;;;;20.70;9.77;;;;;;;;;;4993615;28;20038;-66
2022/10/21 04:09:30;;;;;;;17.50;8.88;;;;;;;;;;4993427;28;20357;-66
2022/10/21 04:11:56;;;;;;;15.07;8.93;;;;;;;;;;4993156;28;20038;-66
2022/10/21 04:14:21;;;;;;;20.15;10.73;;;;;;;;;;4993343;28;20051;-66
2022/10/21 04:16:47;;;;;;;21.98;8.82;;;;;;;;;;4993410;28;20437;-67
2022/10/21 04:19:18;;;;;;;17.38;9.80;;;;;;;;;;4993303;28;20028;-66
2022/10/21 04:21:44;;;;;;;18.00;9.30;;;;;;;;;;4993237;28;20037;-67
2022/10/21 04:24:10;;;;;;;13.00;8.25;;;;;;;;;;4993351;28;20035;-66
2022/10/21 04:26:35;;;;;;;13.32;7.40;;;;;;;;;;4993048;28;20396;-66
2022/10/21 04:29:01;;;;;;;21.70;11.27;;;;;;;;;;4993274;28;20026;-66
2022/10/21 04:31:26;;;;;;;17.88;11.13;;;;;;;;;;4993251;28;20468;-66
2022/10/21 04:33:51;;;;;;;21.08;11.93;;;;;;;;;;4993450;28;20081;-67
2022/10/21 04:36:17;;;;;;;19.88;9.93;;;;;;;;;;4993178;28;20026;-71
2022/10/21 04:38:43;;;;;;;17.65;10.82;;;;;;;;;;4993191;28;20035;-66
2022/10/21 04:41:09;;;;;;;18.08;9.80;;;;;;;;;;4992688;28;20030;-66
2022/10/21 04:43:36;;;;;;;15.75;9.75;;;;;;;;;;4993105;28;20443;-66
2022/10/21 04:46:02;;;;;;;18.90;10.50;;;;;;;;;;4993043;28;20030;-66
2022/10/21 04:48:28;;;;;;;17.95;10.27;;;;;;;;;;4992706;28;20119;-67
2022/10/21 04:50:54;;;;;;;21.92;10.82;;;;;;;;;;4993196;28;20023;-66
2022/10/21 04:53:20;;;;;;;20.42;11.82;;;;;;;;;;4993042;28;20168;-66
2022/10/21 04:55:50;;;;;;;18.00;11.07;;;;;;;;;;4992920;28;20102;-68
2022/10/21 04:58:15;;;;;;;14.77;8.13;;;;;;;;;;4993690;28;20375;-67
2022/10/21 05:00:40;;;;;;;16.45;9.25;;;;;;;;;;4996556;28;20102;-67
2022/10/21 05:03:06;;;;;;;17.13;9.60;;;;;;;;;;4996604;28;20100;-66
2022/10/21 05:05:31;;;;;;;21.27;12.27;;;;;;;;;;4996291;28;20019;-67
2022/10/21 05:07:57;;;;;;;20.80;10.35;;;;;;;;;;4996472;28;20109;-66
2022/10/21 05:10:24;;;;;;;19.60;10.35;;;;;;;;;;4996249;28;20072;-66
2022/10/21 05:12:49;;;;;;;24.90;12.50;;;;;;;;;;4996195;28;20031;-66
2022/10/21 05:15:15;;;;;;;22.05;11.70;;;;;;;;;;4995986;28;20046;-67
2022/10/21 05:17:40;;;;;;;12.98;6.88;;;;;;;;;;4996536;28;20035;-67
2022/10/21 05:20:06;;;;;;;19.13;9.38;;;;;;;;;;4995933;28;20117;-67
2022/10/21 05:22:32;;;;;;;18.98;10.25;;;;;;;;;;4996206;28;20472;-69
2022/10/21 05:24:57;;;;;;;22.95;12.23;;;;;;;;;;4996190;28;20025;-67
2022/10/21 05:27:23;;;;;;;20.90;12.30;;;;;;;;;;4996120;28;20385;-71
2022/10/21 05:29:48;;;;;;;20.58;10.30;;;;;;;;;;4995694;28;20054;-67
2022/10/21 05:32:14;;;;;;;20.35;10.48;;;;;;;;;;4994758;28;20034;-66
2022/10/21 05:34:39;;;;;;;18.50;9.63;;;;;;;;;;4995803;28;20018;-66
2022/10/21 05:37:05;;;;;;;21.13;11.68;;;;;;;;;;4996207;28;20037;-68
2022/10/21 05:39:30;;;;;;;20.48;11.35;;;;;;;;;;4995415;28;20029;-68
2022/10/21 05:41:56;;;;;;;17.67;10.32;;;;;;;;;;4995716;28;20034;-67
2022/10/21 05:44:21;;;;;;;21.20;12.02;;;;;;;;;;4995801;28;20022;-66
2022/10/21 05:46:47;;;;;;;18.75;10.80;;;;;;;;;;4995575;28;20054;-67
2022/10/21 05:49:12;;;;;;;19.33;11.07;;;;;;;;;;4995617;28;20030;-67
2022/10/21 05:51:37;;;;;;;20.58;10.85;;;;;;;;;;4995495;28;20076;-71
2022/10/21 05:54:04;;;;;;;17.42;9.32;;;;;;;;;;4995421;28;20022;-67
2022/10/21 05:56:33;;;;;;;14.85;8.73;;;;;;;;;;4995603;28;20054;-66
2022/10/21 05:58:58;;;;;;;18.10;9.95;;;;;;;;;;4995334;28;20031;-68
2022/10/21 06:01:24;;;;;;;19.92;11.05;;;;;;;;;;4994076;28;20038;-67
2022/10/21 06:03:49;;;;;;;18.45;9.43;;;;;;;;;;4995468;28;20089;-66
2022/10/21 06:06:15;;;;;;;20.58;11.85;;;;;;;;;;4995292;28;20384;-66
2022/10/21 06:08:40;;;;;;;20.52;11.73;;;;;;;;;;4994780;28;20084;-69
2022/10/21 06:11:09;;;;;;;20.80;11.15;;;;;;;;;;4995064;28;20026;-67
2022/10/21 06:13:36;;;;;;;11.73;5.10;;;;;;;;;;4994647;28;20108;-66
2022/10/21 06:16:02;;;;;;;19.65;10.40;;;;;;;;;;4995350;28;20037;-67
2022/10/21 06:18:29;;;;;;;18.05;11.73;;;;;;;;;;4995227;28;20219;-66
2022/10/21 06:20:54;;;;;;;20.35;12.13;;;;;;;;;;4994906;28;20026;-68
2022/10/21 06:23:20;;;;;;;24.60;13.27;;;;;;;;;;4994878;28;20033;-67
2022/10/21 06:26:05;;;;;;;10.07;6.50;;;;;;;;;;4995197;28;20019;-66
2022/10/21 06:28:34;;;;;;;18.13;10.07;;;;;;;;;;4994779;28;20054;-66
2022/10/21 06:31:00;;;;;;;14.75;9.32;;;;;;;;;;4993482;28;20388;-69
2022/10/21 06:33:25;;;;;;;20.77;10.55;;;;;;;;;;4995011;28;20026;-66
2022/10/21 06:35:51;;;;;;;19.10;10.82;;;;;;;;;;4994482;28;20538;-67
2022/10/21 06:38:17;;;;;;;19.55;11.88;;;;;;;;;;4994865;28;20424;-66
2022/10/21 06:40:43;;;;;;;23.13;11.18;;;;;;;;;;4994720;28;20085;-67
2022/10/21 06:43:09;;;;;;;20.15;11.55;;;;;;;;;;4994848;28;20026;-67
2022/10/21 06:45:35;;;;;;;15.90;9.00;;;;;;;;;;4994863;28;20026;-66
2022/10/21 06:48:01;;;;;;;19.60;11.45;;;;;;;;;;4994579;28;20030;-67
2022/10/21 06:50:26;;;;;;;14.15;8.55;;;;;;;;;;4994428;28;20041;-66
2022/10/21 06:52:52;;;;;;;18.95;10.80;;;;;;;;;;4994745;28;20026;-67
2022/10/21 06:55:18;;;;;;;19.08;10.32;;;;;;;;;;4994537;28;20061;-68
2022/10/21 06:57:43;;;;;;;17.38;10.65;;;;;;;;;;4994677;28;20476;-67
2022/10/21 07:00:10;;;;;;;16.27;9.82;;;;;;;;;;4994430;28;20064;-68
2022/10/21 07:02:35;;;;;;;15.65;9.20;;;;;;;;;;4994121;28;20037;-67
2022/10/21 07:05:01;;;;;;;17.83;9.27;;;;;;;;;;4994006;28;20380;-67
2022/10/21 07:07:26;;;;;;;15.18;8.98;;;;;;;;;;4994037;28;20057;-69
2022/10/21 07:09:56;;;;;;;13.68;8.57;;;;;;;;;;4994173;28;20096;-67
2022/10/21 07:12:22;;;;;;;24.73;9.50;;;;;;;;;;4994035;28;20388;-68
2022/10/21 07:14:48;;;;;;;13.75;8.73;;;;;;;;;;4993969;28;20045;-66
2022/10/21 07:17:14;;;;;;;16.50;9.13;;;;;;;;;;4994021;28;20113;-67
2022/10/21 07:19:40;;;;;;;15.18;8.93;;;;;;;;;;4993834;28;20098;-69
2022/10/21 07:22:05;;;;;;;11.52;8.18;;;;;;;;;;4993127;28;20480;-67
2022/10/21 07:24:31;;;;;;;13.45;7.53;;;;;;;;;;4993968;28;20084;-66
2022/10/21 07:26:56;;;;;;;15.43;8.85;;;;;;;;;;4993901;28;20388;-67
2022/10/21 07:29:21;;;;;;;14.40;8.63;;;;;;;;;;4993691;28;20034;-67
2022/10/21 07:31:47;;;;;;;14.35;8.65;;;;;;;;;;4992492;28;20435;-69
2022/10/21 07:34:13;;;;;;;13.40;9.07;;;;;;;;;;4993383;28;20041;-67
2022/10/21 07:36:41;;;;;;;15.02;9.65;;;;;;;;;;4993839;28;20037;-67
2022/10/21 07:39:12;;;;;;;15.43;9.02;;;;;;;;;;4993860;28;20432;-68
2022/10/21 07:41:44;;;;;;;18.70;9.85;;;;;;;;;;4993767;28;20038;-67
2022/10/21 07:44:10;;;;;;;14.63;8.75;;;;;;;;;;4993736;28;20147;-68
2022/10/21 07:46:38;;;;;;;16.13;10.05;;;;;;;;;;4993695;28;20033;-68
2022/10/21 07:49:03;;;;;;;15.82;9.32;;;;;;;;;;4992376;28;20070;-66
2022/10/21 07:51:29;;;;;;;16.45;9.10;;;;;;;;;;4993699;28;20061;-66
2022/10/21 07:53:56;;;;;;;19.65;9.90;;;;;;;;;;4993739;28;20424;-67
2022/10/21 07:56:25;;;;;;;15.43;8.48;;;;;;;;;;4993627;28;20049;-67
2022/10/21 07:58:51;;;;;;;13.07;7.75;;;;;;;;;;4993581;28;20522;-67
2022/10/21 08:01:18;;;;;;;19.25;9.88;;;;;;;;;;4993458;28;20162;-68
2022/10/21 08:03:44;;;;;;;14.20;8.82;;;;;;;;;;4993359;28;20030;-70
2022/10/21 08:06:11;;;;;;;15.35;8.60;;;;;;;;;;4993369;28;20038;-67
2022/10/21 08:08:37;;;;;;;14.68;8.38;;;;;;;;;;4993577;28;20030;-69
2022/10/21 08:11:04;;;;;;;10.48;6.70;;;;;;;;;;4993541;28;20026;-67
2022/10/21 08:13:33;;;;;;;11.70;6.70;;;;;;;;;;4993182;28;20046;-68
2022/10/21 08:15:58;;;;;;;14.10;8.80;;;;;;;;;;4993441;28;20057;-70
2022/10/21 08:18:25;;;;;;;15.10;8.57;;;;;;;;;;4993202;28;20433;-67
2022/10/21 08:20:50;;;;;;;14.85;8.07;;;;;;;;;;4991862;28;20198;-67
2022/10/21 08:23:19;;;;;;;13.43;8.30;;;;;;;;;;4993481;28;20148;-68
2022/10/21 08:25:49;;;;;;;12.80;7.68;;;;;;;;;;4993346;28;20018;-69
2022/10/21 08:28:15;;;;;;;;;;;;;;;;;;4993258;28;20110;-68
2022/10/21 08:30:41;;;;;;;13.70;7.78;;;;;;;;;;4993180;28;20008;-68
2022/10/21 08:33:07;;;;;;;11.18;7.22;;;;;;;;;;4995343;28;20089;-70
2022/10/21 08:35:32;;;;;;;11.05;6.07;;;;;;;;;;4997002;28;20018;-68
2022/10/21 08:37:58;;;;;;;14.77;8.55;;;;;;;;;;4997121;28;20026;-68
2022/10/21 08:40:24;;;;;;;15.07;8.48;;;;;;;;;;4997054;28;20530;-67
2022/10/21 08:42:49;;;;;;;12.30;7.10;;;;;;;;;;4996906;28;20061;-67
2022/10/21 08:45:44;;;;;;;14.68;7.32;;;;;;;;;;4996977;28;20511;-67
2022/10/21 08:48:15;;;;;;;11.93;8.55;;;;;;;;;;4995985;28;20043;-67
2022/10/21 08:50:47;;;;;;;12.10;7.78;;;;;;;;;;4996928;28;20034;-68
2022/10/21 08:53:29;;;;;;;14.48;7.88;;;;;;;;;;4997025;28;20031;-67
2022/10/21 08:56:14;;;;;;;12.63;8.05;;;;;;;;;;4996645;28;20038;-67
2022/10/21 08:58:40;;;;;;;14.95;9.15;;;;;;;;;;4996694;28;20031;-67
2022/10/21 09:01:34;;;;;;;13.40;7.82;;;;;;;;;;4996211;28;20034;-67
2022/10/21 09:04:38;;;;;;;12.38;8.18;;;;;;;;;;4996731;28;20062;-66
2022/10/21 09:07:28;;;;;;;13.20;8.30;;;;;;;;;;4996435;28;20546;-68
2022/10/21 09:10:07;;;;;;;20.25;9.25;;;;;;;;;;4996325;28;20030;-67
2022/10/21 09:12:48;;;;;;;16.00;9.13;;;;;;;;;;4996590;28;20026;-68
2022/10/21 09:15:31;;;;;;;13.90;8.02;;;;;;;;;;4996129;28;20049;-69
2022/10/21 09:18:15;;;;;;;13.63;8.93;;;;;;;;;;4994821;28;20396;-67
2022/10/21 09:21:03;;;;;;;16.27;9.77;;;;;;;;;;4996109;28;20030;-67
2022/10/21 09:23:47;;;;;;;13.23;8.90;;;;;;;;;;4996307;28;20551;-66
2022/10/21 09:26:31;;;;;;;11.25;7.07;;;;;;;;;;4996339;28;20218;-67
2022/10/21 09:28:56;;;;;;;12.88;8.70;;;;;;;;;;4996303;28;20026;-68
2022/10/21 09:31:22;;;;;;;14.32;8.80;;;;;;;;;;4995581;28;20026;-68
2022/10/21 09:34:01;;;;;;;13.82;8.43;;;;;;;;;;4996149;28;20034;-69
2022/10/21 09:36:37;;;;;;;15.38;9.00;;;;;;;;;;4996167;28;20053;-67
2022/10/21 09:39:16;;;;;;;19.25;9.95;;;;;;;;;;4996025;28;20030;-66
2022/10/21 09:41:50;;;;;;;16.35;9.55;;;;;;;;;;4995834;28;20467;-67
2022/10/21 09:44:21;;;;;;;13.65;9.13;;;;;;;;;;4994950;28;20375;-68
2022/10/21 09:46:50;;;;;;;15.35;10.07;;;;;;;;;;4995899;28;20034;-68
2022/10/21 09:49:28;;;;;;;14.70;8.85;;;;;;;;;;4995797;28;20027;-66
2022/10/21 09:51:56;;;;;;;17.38;10.02;;;;;;;;;;4995891;28;20491;-68
2022/10/21 09:54:25;;;;;;;13.93;7.70;;;;;;;;;;4995800;28;20058;-66
2022/10/21 09:57:18;;;;;;;15.65;9.52;;;;;;;;;;4995892;28;20109;-67
2022/10/21 09:59:55;;;;;;;18.15;10.65;;;;;;;;;;4995532;28;20480;-67
2022/10/21 10:02:37;;;;;;;18.75;9.25;;;;;;;;;;4995647;28;20546;-67
2022/10/21 10:05:42;;;;;;;14.65;9.13;;;;;;;;;;4995347;28;20033;-67
2022/10/21 10:08:32;;;;;;;16.30;9.15;;;;;;;;;;4995549;28;20094;-67
2022/10/21 10:11:07;;;;;;;14.57;7.97;;;;;;;;;;4995487;28;20068;-66
2022/10/21 10:13:33;;;;;;;18.73;9.05;;;;;;;;;;4995004;28;20043;-69
2022/10/21 10:16:25;;;;;;;15.93;8.32;;;;;;;;;;4995267;28;20045;-67
2022/10/21 10:19:09;;;;;;;21.65;9.43;;;;;;;;;;4995145;28;20038;-68
2022/10/21 10:21:34;;;;;;;14.85;9.48;;;;;;;;;;4994922;28;20034;-68
2022/10/21 10:24:00;;;;;;;20.75;10.63;;;;;;;;;;4994014;28;20084;-70
2022/10/21 10:26:31;;;;;;;14.88;8.82;;;;;;;;;;4995056;28;20113;-67
2022/10/21 10:29:07;;;;;;;11.88;7.97;;;;;;;;;;4994411;28;20472;-70
2022/10/21 10:31:34;;;;;;;13.70;7.93;;;;;;;;;;4994980;28;20045;-67
2022/10/21 10:34:04;;;;;;;14.27;9.52;;;;;;;;;;4994813;28;20023;-67
2022/10/21 10:36:37;;;;;;;15.70;10.13;;;;;;;;;;4994910;28;20049;-67
2022/10/21 10:39:22;;;;;;;15.65;9.45;;;;;;;;;;4994859;28;20105;-70
2022/10/21 10:41:48;;;;;;;17.00;9.00;;;;;;;;;;4994879;28;20059;-67
2022/10/21 10:44:27;;;;;;;16.40;9.60;;;;;;;;;;4994602;28;20029;-68
2022/10/21 10:46:58;;;;;;;18.90;10.48;;;;;;;;;;4994576;28;20376;-67
2022/10/21 10:49:25;;;;;;;15.57;9.77;;;;;;;;;;4993586;28;20109;-67
2022/10/21 10:52:10;;;;;;;17.15;9.70;;;;;;;;;;4994644;28;20052;-68
2022/10/21 10:54:38;;;;;;;18.60;10.63;;;;;;;;;;4994402;28;20022;-69
2022/10/21 10:57:12;;;;;;;12.10;7.97;;;;;;;;;;4994462;28;20034;-66
2022/10/21 10:59:47;;;;;;;13.27;7.72;;;;;;;;;;4994463;28;20030;-67
2022/10/21 11:02:37;;;;;;;12.05;6.68;;;;;;;;;;4994293;28;20058;-66
2022/10/21 11:05:16;;;;;;;15.35;8.57;;;;;;;;;;4994381;28;20022;-66
2022/10/21 11:07:51;;;;;;;19.58;10.30;;;;;;;;;;4994234;28;20030;-66
2022/10/21 11:10:37;;;;;;;15.18;9.38;;;;;;;;;;4993785;28;20116;-66
2022/10/21 11:13:13;;;;;;;16.63;10.15;;;;;;;;;;4993828;28;20385;-67
2022/10/21 11:15:56;;;;;;;14.90;9.00;;;;;;;;;;4994252;28;20027;-68
2022/10/21 11:18:30;;;;;;;10.57;6.65;;;;;;;;;;4994062;28;20034;-66
2022/10/21 11:21:06;;;;;;;14.65;8.57;;;;;;;;;;4993967;28;20030;-68
2022/10/21 11:23:55;;;;;;;17.05;9.52;;;;;;;;;;4994171;28;20022;-67
2022/10/21 11:26:35;;;;;;;16.58;10.07;;;;;;;;;;4993761;28;20042;-65
2022/10/21 11:29:43;;;;;;;16.00;8.77;;;;;;;;;;4994052;28;20123;-65
2022/10/21 11:32:26;;;;;;;17.92;9.20;;;;;;;;;;4972330;28;20070;-66
2022/10/21 11:35:02;;;;;;;13.50;7.82;;;;;;;;;;4956170;28;20068;-65
2022/10/21 11:37:48;;;;;;;14.63;8.85;;;;;;;;;;4972270;28;20114;-66
2022/10/21 11:40:24;;;;;;;12.88;7.80;;;;;;;;;;4972101;28;20030;-65
2022/10/21 11:42:51;;;;;;;14.93;8.98;;;;;;;;;;4972279;28;20050;-66
2022/10/21 11:45:39;;;;;;;13.55;9.30;;;;;;;;;;4972210;28;20031;-67
2022/10/21 11:48:35;;;;;;;15.38;9.63;;;;;;;;;;4972289;28;20141;-66
2022/10/21 11:51:19;;;;;;;14.13;10.15;;;;;;;;;;4972140;28;20031;-67
2022/10/21 11:54:14;;;;;;;14.23;9.02;;;;;;;;;;4972189;28;20059;-65
2022/10/21 11:56:46;;;;;;;15.45;8.63;;;;;;;;;;4971837;28;20035;-66
2022/10/21 11:59:41;;;;;;;20.35;10.05;;;;;;;;;;4971467;28;20484;-68
2022/10/21 12:02:15;;;;;;;15.38;10.38;;;;;;;;;;4933088;29;20098;-66
2022/10/21 12:05:04;;;;;;;16.90;11.07;;;;;;;;;;4933382;29;20161;-66
2022/10/21 12:07:47;;;;;;;15.45;9.93;;;;;;;;;;4936109;29;20102;-66
2022/10/21 12:10:26;;;;;;;14.52;9.10;;;;;;;;;;4958735;28;20031;-66
2022/10/21 12:12:55;;;;;;;12.07;7.53;;;;;;;;;;4958849;28;20047;-66
2022/10/21 12:15:28;;;;;;;19.17;10.95;;;;;;;;;;4959236;29;20043;-66
2022/10/21 12:17:54;;;;;;;16.00;10.23;;;;;;;;;;4958957;28;20039;-69
2022/10/21 12:20:23;;;;;;;18.08;9.95;;;;;;;;;;4958390;28;20469;-67
2022/10/21 12:22:49;;;;;;;15.85;9.20;;;;;;;;;;4958769;29;20047;-65
2022/10/21 12:25:15;;;;;;;16.52;10.40;;;;;;;;;;4958562;28;20035;-66
2022/10/21 12:27:43;;;;;;;16.70;9.57;;;;;;;;;;4958892;28;20040;-66
2022/10/21 12:30:33;;;;;;;17.15;9.05;;;;;;;;;;4958617;29;20134;-66
2022/10/21 12:33:08;;;;;;;;;;;;;;;;;;4959339;28;20039;-66
2022/10/21 12:35:49;;;;;;;17.27;9.80;;;;;;;;;;4958952;28;19914;-68
2022/10/21 12:38:57;;;;;;;22.05;10.05;;;;;;;;;;4966313;28;20042;-66
2022/10/21 12:41:22;;;;;;;14.60;9.07;;;;;;;;;;4999521;28;20041;-67
2022/10/21 12:43:53;;;;;;;13.85;8.93;;;;;;;;;;4999643;28;20376;-65
2022/10/21 12:46:25;;;;;;;14.55;8.85;;;;;;;;;;4999652;28;20042;-66
2022/10/21 12:48:51;;;;;;;13.05;8.70;;;;;;;;;;4999467;28;20057;-67
2022/10/21 12:51:28;;;;;;;15.93;9.05;;;;;;;;;;4999363;28;20030;-68
2022/10/21 12:54:14;;;;;;;15.65;9.70;;;;;;;;;;4999219;28;20363;-68
2022/10/21 12:56:49;;;;;;;18.20;10.10;;;;;;;;;;4999489;28;20026;-66
2022/10/21 12:59:26;;;;;;;21.42;10.57;;;;;;;;;;4999148;28;20487;-65
2022/10/21 13:02:04;;;;;;;19.88;9.52;;;;;;;;;;4999414;28;20064;-69
2022/10/21 13:04:32;;;;;;;13.15;9.38;;;;;;;;;;4999022;28;20060;-67
2022/10/21 13:07:24;;;;;;;16.67;9.60;;;;;;;;;;4999178;28;20384;-70
2022/10/21 13:09:58;;;;;;;15.82;9.77;;;;;;;;;;4997983;28;20034;-66
2022/10/21 13:12:23;;;;;;;17.38;10.40;;;;;;;;;;4999447;28;20101;-65
2022/10/21 13:14:53;;;;;;;17.88;9.18;;;;;;;;;;4999139;28;20038;-64
2022/10/21 13:17:21;;;;;;;17.33;9.68;;;;;;;;;;4999222;28;20034;-66
2022/10/21 13:19:55;;;;;;;13.27;8.73;;;;;;;;;;4995693;28;20019;-65
2022/10/21 13:22:35;;;;;;;18.77;10.60;;;;;;;;;;4996075;28;20030;-66
2022/10/21 13:25:18;;;;;;;10.60;7.28;;;;;;;;;;4996283;28;20019;-66
2022/10/21 13:27:51;;;;;;;19.30;11.32;;;;;;;;;;4996401;28;20041;-64
2022/10/21 13:30:37;;;;;;;17.95;10.50;;;;;;;;;;4995916;28;20038;-67
2022/10/21 13:33:15;;;;;;;21.95;9.48;;;;;;;;;;4996216;28;20042;-67
2022/10/21 13:35:43;;;;;;;19.38;11.40;;;;;;;;;;4996156;28;20043;-68
2022/10/21 13:38:23;;;;;;;18.70;10.88;;;;;;;;;;4994348;28;20038;-69
2022/10/21 13:40:59;;;;;;;;;;;;;;;;;;4996322;28;20081;-68
2022/10/21 13:43:52;;;;;;;20.98;11.60;;;;;;;;;;4995776;28;19914;-68
2022/10/21 13:46:25;;;;;;;15.48;9.85;;;;;;;;;;4993819;28;20038;-67
2022/10/21 13:48:52;;;;;;;14.43;8.98;;;;;;;;;;4995896;28;20472;-67
2022/10/21 13:51:21;;;;;;;21.60;11.27;;;;;;;;;;4995395;28;20045;-68
2022/10/21 13:53:48;;;;;;;18.40;11.55;;;;;;;;;;4995735;28;20050;-67
2022/10/21 13:56:32;;;;;;;23.75;11.88;;;;;;;;;;4995697;28;20022;-67
2022/10/21 13:58:57;;;;;;;18.38;9.90;;;;;;;;;;4995576;28;20035;-67
2022/10/21 14:01:26;;;;;;;19.38;10.52;;;;;;;;;;4995387;28;20584;-68
2022/10/21 14:03:54;;;;;;;22.23;11.57;;;;;;;;;;4995605;28;20038;-68
2022/10/21 14:06:30;;;;;;;19.42;11.38;;;;;;;;;;4995428;28;20046;-67
2022/10/21 14:08:57;;;;;;;17.73;10.73;;;;;;;;;;4995441;28;20440;-67
2022/10/21 14:11:27;;;;;;;21.20;11.45;;;;;;;;;;4994147;28;20092;-67
2022/10/21 14:13:54;;;;;;;17.33;10.00;;;;;;;;;;4995035;28;20488;-67
2022/10/21 14:16:42;;;;;;;20.58;11.35;;;;;;;;;;4994996;28;20044;-68
2022/10/21 14:19:17;;;;;;;20.25;12.00;;;;;;;;;;4995112;28;20022;-67
2022/10/21 14:21:45;;;;;;;19.30;11.93;;;;;;;;;;4994922;28;20052;-66
2022/10/21 14:24:34;;;;;;;19.70;11.98;;;;;;;;;;4995136;28;20050;-67
2022/10/21 14:27:01;;;;;;;18.90;10.65;;;;;;;;;;4994807;28;20022;-67
2022/10/21 14:29:29;;;;;;;18.92;10.82;;;;;;;;;;4995061;28;20495;-67
2022/10/21 14:31:56;;;;;;;19.35;11.68;;;;;;;;;;4994742;28;20108;-68
2022/10/21 14:34:27;;;;;;;23.35;12.00;;;;;;;;;;4994889;28;20029;-68
2022/10/21 14:37:00;;;;;;;20.05;11.38;;;;;;;;;;4995022;28;20034;-67
2022/10/21 14:39:26;;;;;;;20.17;12.63;;;;;;;;;;4994551;28;20030;-67
2022/10/21 14:41:52;;;;;;;19.92;12.35;;;;;;;;;;4994487;28;20087;-67
2022/10/21 14:44:21;;;;;;;23.63;12.63;;;;;;;;;;4994640;28;20034;-68
2022/10/21 14:46:49;;;;;;;20.70;11.00;;;;;;;;;;4994832;28;20403;-67
2022/10/21 14:49:27;;;;;;;19.60;12.32;;;;;;;;;;4994525;28;20022;-68